Terminal Aerodrome Forecast
Issued by NWS Des Moines, IA

Home | Current Version | Previous Version | Text Only | Print | Product List | Glossary On
Versions: 1 2 3 4 5 6 7 8 9 10 11 12 13 14 15 16 17 18 19 20 21 22 23 24 25 26 27 28 29 30 31 32 33 34 35 36 37 38 39 40 41 42 43 44 45 46 47 48 49 50
153
FTUS43 KDMX 251858 AAA
TAFDSM
TAF AMD
KDSM 251858Z 2519/2618 20010KT P6SM SCT025 SCT110
     FM260200 20004KT P6SM BKN050
     FM260400 18005KT P6SM VCTS BKN040CB
      TEMPO 2604/2607 4SM -TSRA BKN015 BKN045CB
     FM260700 19005KT 5SM BR BKN009 OVC025
     FM261300 20005KT P6SM SCT009 BKN015
     FM261500 19006KT P6SM SCT015 BKN050=

USA.gov is the U.S. government's official web portal to all federal, state and local government web resources and services.